»·PEaware :: N2MZ KLAX-KSNA

N2MZ :: KLAX-KSNA

FLIGHT INFORMATION

Flight Status: Arrived
Operator: Privately registered:
United States
More flights under this callsign
Pilot: Mike Z. (25595)
Aircraft: CESSNA 172 SKYHAWK
(C172)
More flights by this aircraft type
Origin: KLAX Los Angeles Intl
United States
Destination: KSNA John Wayne-Orange Co
United States
More flights between these airports :: More routes between these airports
Route: +SLI8 SLI
File this flight plan on PilotEdge
Remarks: I-6
Altitude:
(Current/Filed)
4,000ft
Speed:
(Current/Filed)
120kts
Departed: 20-Sep-19 07:08 PM
Arrived: 20-Sep-19 07:50 PM
Distance/Time
Traveled:
31nm/0:41
Distance/Time
To Go:
Arrived

Flight Plot

Page will automatically refresh every two minutes.

Flight plan parsing failed; only flown route is shown


Map Options




Map Legend


Flown Route
Filed Route
Departure Airport
Arrival Airport
Navaid (VOR, NDB)
Fix

Horizontal Profiles

Position Reports

Time Latitude Longitude Heading Altitude Ground
Speed
20-Sep-19 18:49 33.932738 -118.399121 21 112ft 0kts
20-Sep-19 18:50 33.932738 -118.399121 21 112ft 0kts
20-Sep-19 18:51 33.932738 -118.399121 21 112ft 0kts
20-Sep-19 18:52 33.932738 -118.399121 21 112ft 0kts
20-Sep-19 18:53 33.932738 -118.399121 21 112ft 0kts
20-Sep-19 18:54 33.932738 -118.399121 21 112ft 0kts
20-Sep-19 18:55 33.932738 -118.399121 21 112ft 0kts
20-Sep-19 18:56 33.932738 -118.399121 21 112ft 0kts
20-Sep-19 18:57 33.932738 -118.399121 21 112ft 0kts
20-Sep-19 18:58 33.932738 -118.399121 21 112ft 0kts
20-Sep-19 18:59 33.932738 -118.399121 21 112ft 0kts
20-Sep-19 19:00 33.932738 -118.399121 21 112ft 0kts
20-Sep-19 19:01 33.934581 -118.397762 76 109ft 11kts
20-Sep-19 19:02 33.935605 -118.387867 81 99ft 39kts
20-Sep-19 19:03 33.936135 -118.382990 36 96ft 0kts
20-Sep-19 19:04 33.936135 -118.382989 36 96ft 0kts
20-Sep-19 19:05 33.936135 -118.382990 36 96ft 0kts
20-Sep-19 19:06 33.936135 -118.382990 36 96ft 0kts
20-Sep-19 19:06 33.936490 -118.382769 10 96ft 12kts
20-Sep-19 19:08 33.935875 -118.397094 259 359ft 75kts
20-Sep-19 19:08 33.933454 -118.419899 262 1045ft 82kts
20-Sep-19 19:09 33.929395 -118.443511 224 1954ft 76kts
20-Sep-19 19:11 33.906844 -118.459158 218 2960ft 66kts
20-Sep-19 19:11 33.895160 -118.468145 221 3505ft 65kts
20-Sep-19 19:12 33.876416 -118.477550 158 4019ft 100kts
20-Sep-19 19:13 33.849508 -118.451421 143 3994ft 127kts
20-Sep-19 19:14 33.821704 -118.424816 148 3994ft 126kts
20-Sep-19 19:15 33.793128 -118.400079 148 3994ft 122kts
20-Sep-19 19:16 33.765731 -118.375965 148 3994ft 120kts
20-Sep-19 19:17 33.738670 -118.351884 148 3995ft 120kts
20-Sep-19 19:18 33.712674 -118.326834 112 3994ft 123kts
20-Sep-19 19:19 33.721190 -118.287908 64 3993ft 121kts
20-Sep-19 19:20 33.733086 -118.250092 68 3990ft 123kts
20-Sep-19 19:21 33.743814 -118.210795 68 3987ft 122kts
20-Sep-19 19:22 33.754327 -118.171488 69 3985ft 124kts
20-Sep-19 19:23 33.764492 -118.131408 71 3981ft 125kts
20-Sep-19 19:24 33.773994 -118.091790 73 3978ft 124kts
20-Sep-19 19:25 33.783476 -118.053168 58 3977ft 122kts
20-Sep-19 19:26 33.799287 -118.017905 61 3977ft 123kts
20-Sep-19 19:27 33.814189 -117.980969 62 3977ft 124kts
20-Sep-19 19:28 33.828788 -117.944329 62 3976ft 124kts
20-Sep-19 19:29 33.843260 -117.907789 62 3976ft 125kts
20-Sep-19 19:30 33.858273 -117.869755 62 3975ft 125kts
20-Sep-19 19:31 33.872552 -117.833502 62 3975ft 125kts
20-Sep-19 19:32 33.886976 -117.796732 63 3988ft 122kts
20-Sep-19 19:33 33.900636 -117.760757 62 4004ft 119kts
20-Sep-19 19:34 33.914206 -117.725189 60 4018ft 117kts
20-Sep-19 19:35 33.942498 -117.706478 21 3645ft 122kts
20-Sep-19 19:36 33.957073 -117.723125 225 3518ft 113kts
20-Sep-19 19:37 33.926738 -117.712367 178 3520ft 125kts
20-Sep-19 19:38 33.898316 -117.725351 208 3410ft 98kts
20-Sep-19 19:39 33.873395 -117.741672 210 3420ft 106kts
20-Sep-19 19:40 33.849279 -117.759401 216 3384ft 96kts
20-Sep-19 19:41 33.826450 -117.775098 208 2871ft 88kts
20-Sep-19 19:42 33.803266 -117.788752 208 2587ft 103kts
20-Sep-19 19:43 33.776816 -117.804675 209 2129ft 95kts
20-Sep-19 19:44 33.754803 -117.818609 208 1719ft 77kts
20-Sep-19 19:45 33.734634 -117.831399 208 1266ft 79kts
20-Sep-19 19:46 33.716055 -117.843184 207 797ft 65kts
20-Sep-19 19:47 33.700150 -117.853249 208 520ft 63kts
20-Sep-19 19:48 33.684738 -117.863090 208 192ft 62kts
20-Sep-19 19:49 33.675883 -117.868901 237 60ft 9kts
20-Sep-19 19:50 33.675947 -117.869912 273 60ft 4kts
20-Sep-19 19:51 33.674903 -117.871810 246 60ft 0kts
20-Sep-19 19:52 33.674903 -117.871810 246 60ft 0kts

Navigation Log

Ident Type
Flight plan parsing failed, navigation log unavailable